sensor_id;sensor_type;location;lat;lon;timestamp;temperature;humidity
40289;DHT22;28991;52.028;5.526;2023-03-05T00:00:13;14.50;48.80
40289;DHT22;28991;52.028;5.526;2023-03-05T00:02:40;14.00;47.80
40289;DHT22;28991;52.028;5.526;2023-03-05T00:05:06;14.60;48.10
40289;DHT22;28991;52.028;5.526;2023-03-05T00:07:32;14.60;48.10
40289;DHT22;28991;52.028;5.526;2023-03-05T00:09:59;14.70;48.20
40289;DHT22;28991;52.028;5.526;2023-03-05T00:12:25;14.80;48.30
40289;DHT22;28991;52.028;5.526;2023-03-05T00:14:50;14.90;48.30
40289;DHT22;28991;52.028;5.526;2023-03-05T00:17:16;15.20;48.50
40289;DHT22;28991;52.028;5.526;2023-03-05T00:19:42;14.60;48.20
40289;DHT22;28991;52.028;5.526;2023-03-05T00:22:07;14.60;48.20
40289;DHT22;28991;52.028;5.526;2023-03-05T00:24:33;14.50;48.10
40289;DHT22;28991;52.028;5.526;2023-03-05T00:26:58;14.60;48.20
40289;DHT22;28991;52.028;5.526;2023-03-05T00:29:24;14.90;48.40
40289;DHT22;28991;52.028;5.526;2023-03-05T00:31:49;14.60;48.20
40289;DHT22;28991;52.028;5.526;2023-03-05T00:34:17;14.60;48.20
40289;DHT22;28991;52.028;5.526;2023-03-05T00:36:45;14.60;48.20
40289;DHT22;28991;52.028;5.526;2023-03-05T00:39:12;13.70;47.80
40289;DHT22;28991;52.028;5.526;2023-03-05T00:41:38;14.90;49.20
40289;DHT22;28991;52.028;5.526;2023-03-05T00:44:04;14.40;48.10
40289;DHT22;28991;52.028;5.526;2023-03-05T00:46:30;14.70;48.30
40289;DHT22;28991;52.028;5.526;2023-03-05T00:48:56;14.50;48.20
40289;DHT22;28991;52.028;5.526;2023-03-05T00:51:22;14.30;48.10
40289;DHT22;28991;52.028;5.526;2023-03-05T00:53:47;14.60;48.30
40289;DHT22;28991;52.028;5.526;2023-03-05T00:56:13;14.60;48.30
40289;DHT22;28991;52.028;5.526;2023-03-05T00:58:39;15.20;48.60
40289;DHT22;28991;52.028;5.526;2023-03-05T01:01:05;14.50;49.10
40289;DHT22;28991;52.028;5.526;2023-03-05T01:03:32;14.90;49.30
40289;DHT22;28991;52.028;5.526;2023-03-05T01:05:58;14.50;48.20
40289;DHT22;28991;52.028;5.526;2023-03-05T01:08:24;15.80;48.90
40289;DHT22;28991;52.028;5.526;2023-03-05T01:10:50;15.00;48.50
40289;DHT22;28991;52.028;5.526;2023-03-05T01:13:15;14.60;48.30
40289;DHT22;28991;52.028;5.526;2023-03-05T01:15:41;14.70;48.40
40289;DHT22;28991;52.028;5.526;2023-03-05T01:18:07;14.60;48.30
40289;DHT22;28991;52.028;5.526;2023-03-05T01:20:32;15.90;49.00
40289;DHT22;28991;52.028;5.526;2023-03-05T01:22:58;14.60;48.30
40289;DHT22;28991;52.028;5.526;2023-03-05T01:25:26;14.50;48.30
40289;DHT22;28991;52.028;5.526;2023-03-05T01:27:52;14.60;48.40
40289;DHT22;28991;52.028;5.526;2023-03-05T01:30:18;14.50;48.20
40289;DHT22;28991;52.028;5.526;2023-03-05T01:32:43;14.30;48.10
40289;DHT22;28991;52.028;5.526;2023-03-05T01:35:14;15.00;49.40
40289;DHT22;28991;52.028;5.526;2023-03-05T01:37:40;14.60;48.40
40289;DHT22;28991;52.028;5.526;2023-03-05T01:40:06;14.40;48.30
40289;DHT22;28991;52.028;5.526;2023-03-05T01:42:31;14.50;48.30
40289;DHT22;28991;52.028;5.526;2023-03-05T01:45:12;14.60;49.30
40289;DHT22;28991;52.028;5.526;2023-03-05T01:47:38;14.50;48.30
40289;DHT22;28991;52.028;5.526;2023-03-05T01:50:06;14.40;48.30
40289;DHT22;28991;52.028;5.526;2023-03-05T01:52:35;14.30;48.80
40289;DHT22;28991;52.028;5.526;2023-03-05T01:55:09;16.40;49.30
40289;DHT22;28991;52.028;5.526;2023-03-05T01:57:43;14.60;49.30
40289;DHT22;28991;52.028;5.526;2023-03-05T02:00:12;14.50;48.30
40289;DHT22;28991;52.028;5.526;2023-03-05T02:02:40;14.40;48.30
40289;DHT22;28991;52.028;5.526;2023-03-05T02:05:32;14.80;49.30
40289;DHT22;28991;52.028;5.526;2023-03-05T02:08:02;14.50;48.30
40289;DHT22;28991;52.028;5.526;2023-03-05T02:10:31;14.40;48.30
40289;DHT22;28991;52.028;5.526;2023-03-05T02:12:59;14.70;48.50
40289;DHT22;28991;52.028;5.526;2023-03-05T02:15:25;14.50;48.40
40289;DHT22;28991;52.028;5.526;2023-03-05T02:17:51;15.20;48.80
40289;DHT22;28991;52.028;5.526;2023-03-05T02:20:29;14.50;48.40
40289;DHT22;28991;52.028;5.526;2023-03-05T02:22:55;14.50;48.40
40289;DHT22;28991;52.028;5.526;2023-03-05T02:25:24;15.10;48.70
40289;DHT22;28991;52.028;5.526;2023-03-05T02:30:45;14.40;48.30
40289;DHT22;28991;52.028;5.526;2023-03-05T02:33:13;14.40;48.30
40289;DHT22;28991;52.028;5.526;2023-03-05T02:35:39;14.10;48.20
40289;DHT22;28991;52.028;5.526;2023-03-05T02:38:04;14.50;48.40
40289;DHT22;28991;52.028;5.526;2023-03-05T02:40:30;14.40;48.30
40289;DHT22;28991;52.028;5.526;2023-03-05T02:42:55;14.50;48.40
40289;DHT22;28991;52.028;5.526;2023-03-05T02:45:21;14.40;49.60
40289;DHT22;28991;52.028;5.526;2023-03-05T02:47:47;14.70;49.70
40289;DHT22;28991;52.028;5.526;2023-03-05T02:50:12;14.50;48.40
40289;DHT22;28991;52.028;5.526;2023-03-05T02:52:38;14.60;48.50
40289;DHT22;28991;52.028;5.526;2023-03-05T02:55:05;13.20;47.70
40289;DHT22;28991;52.028;5.526;2023-03-05T02:57:31;14.90;48.60
40289;DHT22;28991;52.028;5.526;2023-03-05T02:59:56;14.60;48.50
40289;DHT22;28991;52.028;5.526;2023-03-05T03:02:22;18.40;50.50
40289;DHT22;28991;52.028;5.526;2023-03-05T03:04:48;14.50;48.40
40289;DHT22;28991;52.028;5.526;2023-03-05T03:07:14;14.60;49.70
40289;DHT22;28991;52.028;5.526;2023-03-05T03:09:40;16.90;49.70
40289;DHT22;28991;52.028;5.526;2023-03-05T03:12:07;14.90;48.70
40289;DHT22;28991;52.028;5.526;2023-03-05T03:14:35;16.00;49.20
40289;DHT22;28991;52.028;5.526;2023-03-05T03:17:11;14.40;48.30
40289;DHT22;28991;52.028;5.526;2023-03-05T03:19:38;14.40;48.40
40289;DHT22;28991;52.028;5.526;2023-03-05T03:22:05;14.20;48.30
40289;DHT22;28991;52.028;5.526;2023-03-05T03:24:32;14.80;48.60
40289;DHT22;28991;52.028;5.526;2023-03-05T03:26:58;14.40;48.40
40289;DHT22;28991;52.028;5.526;2023-03-05T03:29:24;14.30;48.30
40289;DHT22;28991;52.028;5.526;2023-03-05T03:31:49;14.00;48.20
40289;DHT22;28991;52.028;5.526;2023-03-05T03:34:16;15.80;49.20
40289;DHT22;28991;52.028;5.526;2023-03-05T03:36:43;15.90;49.20
40289;DHT22;28991;52.028;5.526;2023-03-05T03:39:12;14.40;48.40
40289;DHT22;28991;52.028;5.526;2023-03-05T03:41:49;14.50;48.50
40289;DHT22;28991;52.028;5.526;2023-03-05T03:44:15;15.50;49.00
40289;DHT22;28991;52.028;5.526;2023-03-05T03:46:43;14.00;48.20
40289;DHT22;28991;52.028;5.526;2023-03-05T03:49:23;14.50;49.50
40289;DHT22;28991;52.028;5.526;2023-03-05T03:51:51;15.50;49.00
40289;DHT22;28991;52.028;5.526;2023-03-05T03:54:18;14.90;48.70
40289;DHT22;28991;52.028;5.526;2023-03-05T03:56:44;14.10;48.20
40289;DHT22;28991;52.028;5.526;2023-03-05T03:59:11;14.60;48.50
40289;DHT22;28991;52.028;5.526;2023-03-05T04:01:37;15.30;48.90
40289;DHT22;28991;52.028;5.526;2023-03-05T04:04:03;14.70;49.60
40289;DHT22;28991;52.028;5.526;2023-03-05T04:06:29;14.50;48.50
40289;DHT22;28991;52.028;5.526;2023-03-05T04:08:55;15.70;49.10
40289;DHT22;28991;52.028;5.526;2023-03-05T04:11:21;14.50;48.50
40289;DHT22;28991;52.028;5.526;2023-03-05T04:13:47;14.40;48.40
40289;DHT22;28991;52.028;5.526;2023-03-05T04:16:14;14.50;48.50
40289;DHT22;28991;52.028;5.526;2023-03-05T04:18:40;14.50;49.50
40289;DHT22;28991;52.028;5.526;2023-03-05T04:21:06;15.20;48.90
40289;DHT22;28991;52.028;5.526;2023-03-05T04:23:32;14.40;48.50
40289;DHT22;28991;52.028;5.526;2023-03-05T04:25:57;14.40;48.40
40289;DHT22;28991;52.028;5.526;2023-03-05T04:28:23;14.30;49.40
40289;DHT22;28991;52.028;5.526;2023-03-05T04:30:49;16.60;49.60
40289;DHT22;28991;52.028;5.526;2023-03-05T04:33:15;14.30;48.40
40289;DHT22;28991;52.028;5.526;2023-03-05T04:35:40;14.80;49.70
40289;DHT22;28991;52.028;5.526;2023-03-05T04:38:06;14.10;49.30
40289;DHT22;28991;52.028;5.526;2023-03-05T04:40:32;14.40;48.50
40289;DHT22;28991;52.028;5.526;2023-03-05T04:42:57;14.60;48.60
40289;DHT22;28991;52.028;5.526;2023-03-05T04:45:23;14.50;48.50
40289;DHT22;28991;52.028;5.526;2023-03-05T04:47:48;14.50;48.50
40289;DHT22;28991;52.028;5.526;2023-03-05T04:50:14;14.40;48.50
40289;DHT22;28991;52.028;5.526;2023-03-05T04:52:42;14.40;48.40
40289;DHT22;28991;52.028;5.526;2023-03-05T04:55:09;15.20;48.90
40289;DHT22;28991;52.028;5.526;2023-03-05T04:57:35;14.40;48.50
40289;DHT22;28991;52.028;5.526;2023-03-05T05:00:02;14.90;49.10
40289;DHT22;28991;52.028;5.526;2023-03-05T05:02:31;14.50;48.50
40289;DHT22;28991;52.028;5.526;2023-03-05T05:04:57;14.20;49.30
40289;DHT22;28991;52.028;5.526;2023-03-05T05:07:22;13.60;48.10
40289;DHT22;28991;52.028;5.526;2023-03-05T05:09:48;14.50;49.50
40289;DHT22;28991;52.028;5.526;2023-03-05T05:12:13;14.70;48.70
40289;DHT22;28991;52.028;5.526;2023-03-05T05:14:39;14.40;48.40
40289;DHT22;28991;52.028;5.526;2023-03-05T05:17:05;14.40;48.40
40289;DHT22;28991;52.028;5.526;2023-03-05T05:19:34;14.00;48.30
40289;DHT22;28991;52.028;5.526;2023-03-05T05:22:00;14.40;48.50
40289;DHT22;28991;52.028;5.526;2023-03-05T05:24:26;15.40;49.00
40289;DHT22;28991;52.028;5.526;2023-03-05T05:26:54;14.40;48.50
40289;DHT22;28991;52.028;5.526;2023-03-05T05:29:20;14.40;48.50
40289;DHT22;28991;52.028;5.526;2023-03-05T05:31:46;14.10;49.40
40289;DHT22;28991;52.028;5.526;2023-03-05T05:34:12;14.40;48.50
40289;DHT22;28991;52.028;5.526;2023-03-05T05:36:38;14.40;48.50
40289;DHT22;28991;52.028;5.526;2023-03-05T05:39:04;14.40;48.50
40289;DHT22;28991;52.028;5.526;2023-03-05T05:41:29;14.50;49.10
40289;DHT22;28991;52.028;5.526;2023-03-05T05:43:55;14.40;48.50
40289;DHT22;28991;52.028;5.526;2023-03-05T05:46:21;13.60;47.90
40289;DHT22;28991;52.028;5.526;2023-03-05T05:48:47;14.30;48.30
40289;DHT22;28991;52.028;5.526;2023-03-05T05:51:16;14.70;48.40
40289;DHT22;28991;52.028;5.526;2023-03-05T05:53:42;14.50;48.10
40289;DHT22;28991;52.028;5.526;2023-03-05T05:56:09;14.60;47.90
40289;DHT22;28991;52.028;5.526;2023-03-05T05:58:36;14.90;47.70
40289;DHT22;28991;52.028;5.526;2023-03-05T06:01:02;16.30;48.00
40289;DHT22;28991;52.028;5.526;2023-03-05T06:03:27;15.10;47.20
40289;DHT22;28991;52.028;5.526;2023-03-05T06:05:53;14.90;46.60
40289;DHT22;28991;52.028;5.526;2023-03-05T06:08:19;15.10;47.70
40289;DHT22;28991;52.028;5.526;2023-03-05T06:10:53;14.90;46.40
40289;DHT22;28991;52.028;5.526;2023-03-05T06:13:18;15.20;47.70
40289;DHT22;28991;52.028;5.526;2023-03-05T06:15:44;15.10;46.70
40289;DHT22;28991;52.028;5.526;2023-03-05T06:18:10;15.10;46.60
40289;DHT22;28991;52.028;5.526;2023-03-05T06:20:35;15.20;46.40
40289;DHT22;28991;52.028;5.526;2023-03-05T06:23:01;15.00;46.30
40289;DHT22;28991;52.028;5.526;2023-03-05T06:25:26;15.20;47.40
40289;DHT22;28991;52.028;5.526;2023-03-05T06:27:52;15.30;46.40
40289;DHT22;28991;52.028;5.526;2023-03-05T06:30:17;15.40;46.20
40289;DHT22;28991;52.028;5.526;2023-03-05T06:32:43;15.30;46.10
40289;DHT22;28991;52.028;5.526;2023-03-05T06:35:09;15.50;46.20
40289;DHT22;28991;52.028;5.526;2023-03-05T06:37:34;15.50;47.00
40289;DHT22;28991;52.028;5.526;2023-03-05T06:40:00;15.40;47.00
40289;DHT22;28991;52.028;5.526;2023-03-05T06:42:25;15.60;46.00
40289;DHT22;28991;52.028;5.526;2023-03-05T06:44:51;15.10;46.70
40289;DHT22;28991;52.028;5.526;2023-03-05T06:47:16;16.10;46.00
40289;DHT22;28991;52.028;5.526;2023-03-05T06:49:42;15.90;45.60
40289;DHT22;28991;52.028;5.526;2023-03-05T06:52:09;15.60;45.60
40289;DHT22;28991;52.028;5.526;2023-03-05T06:54:37;15.80;45.60
40289;DHT22;28991;52.028;5.526;2023-03-05T06:57:02;16.20;45.80
40289;DHT22;28991;52.028;5.526;2023-03-05T06:59:28;15.60;45.80
40289;DHT22;28991;52.028;5.526;2023-03-05T07:01:53;15.60;45.30
40289;DHT22;28991;52.028;5.526;2023-03-05T07:04:19;15.70;44.90
40289;DHT22;28991;52.028;5.526;2023-03-05T07:06:44;15.90;45.30
40289;DHT22;28991;52.028;5.526;2023-03-05T07:09:13;15.80;44.90
40289;DHT22;28991;52.028;5.526;2023-03-05T07:11:39;16.20;45.50
40289;DHT22;28991;52.028;5.526;2023-03-05T07:14:05;15.80;45.20
40289;DHT22;28991;52.028;5.526;2023-03-05T07:16:32;15.80;44.90
40289;DHT22;28991;52.028;5.526;2023-03-05T07:19:00;15.70;45.00
40289;DHT22;28991;52.028;5.526;2023-03-05T07:21:28;16.70;45.90
40289;DHT22;28991;52.028;5.526;2023-03-05T07:23:55;15.90;45.60
40289;DHT22;28991;52.028;5.526;2023-03-05T07:26:22;15.90;45.60
40289;DHT22;28991;52.028;5.526;2023-03-05T07:28:47;16.30;46.90
40289;DHT22;28991;52.028;5.526;2023-03-05T07:31:15;15.80;45.50
40289;DHT22;28991;52.028;5.526;2023-03-05T07:33:43;15.90;45.50
40289;DHT22;28991;52.028;5.526;2023-03-05T07:36:10;15.90;45.50
40289;DHT22;28991;52.028;5.526;2023-03-05T07:38:36;15.90;45.40
40289;DHT22;28991;52.028;5.526;2023-03-05T07:41:07;15.40;46.20
40289;DHT22;28991;52.028;5.526;2023-03-05T07:43:32;16.90;45.80
40289;DHT22;28991;52.028;5.526;2023-03-05T07:45:58;16.10;45.40
40289;DHT22;28991;52.028;5.526;2023-03-05T07:48:24;16.80;46.70
40289;DHT22;28991;52.028;5.526;2023-03-05T07:50:49;16.10;45.30
40289;DHT22;28991;52.028;5.526;2023-03-05T07:53:16;16.10;45.30
40289;DHT22;28991;52.028;5.526;2023-03-05T07:55:45;16.20;45.20
40289;DHT22;28991;52.028;5.526;2023-03-05T07:58:12;16.00;45.90
40289;DHT22;28991;52.028;5.526;2023-03-05T08:00:38;16.20;44.90
40289;DHT22;28991;52.028;5.526;2023-03-05T08:03:05;16.60;44.50
40289;DHT22;28991;52.028;5.526;2023-03-05T08:05:30;16.30;44.10
40289;DHT22;28991;52.028;5.526;2023-03-05T08:07:56;16.00;44.70
40289;DHT22;28991;52.028;5.526;2023-03-05T08:10:22;16.40;43.80
40289;DHT22;28991;52.028;5.526;2023-03-05T08:12:47;17.40;45.60
40289;DHT22;28991;52.028;5.526;2023-03-05T08:15:13;16.50;44.20
40289;DHT22;28991;52.028;5.526;2023-03-05T08:17:38;16.70;44.40
40289;DHT22;28991;52.028;5.526;2023-03-05T08:20:04;16.50;44.30
40289;DHT22;28991;52.028;5.526;2023-03-05T08:22:35;16.50;44.40
40289;DHT22;28991;52.028;5.526;2023-03-05T08:25:01;16.90;44.50
40289;DHT22;28991;52.028;5.526;2023-03-05T08:27:27;16.80;45.70
40289;DHT22;28991;52.028;5.526;2023-03-05T08:29:52;16.10;44.30
40289;DHT22;28991;52.028;5.526;2023-03-05T08:32:18;16.50;44.10
40289;DHT22;28991;52.028;5.526;2023-03-05T08:34:44;16.50;45.70
40289;DHT22;28991;52.028;5.526;2023-03-05T08:37:09;16.60;44.60
40289;DHT22;28991;52.028;5.526;2023-03-05T08:39:35;16.50;44.50
40289;DHT22;28991;52.028;5.526;2023-03-05T08:42:01;16.60;44.40
40289;DHT22;28991;52.028;5.526;2023-03-05T08:44:27;16.50;44.60
40289;DHT22;28991;52.028;5.526;2023-03-05T08:46:53;16.40;44.40
40289;DHT22;28991;52.028;5.526;2023-03-05T08:49:18;16.50;44.40
40289;DHT22;28991;52.028;5.526;2023-03-05T08:51:44;16.80;45.50
40289;DHT22;28991;52.028;5.526;2023-03-05T08:54:09;17.10;44.50
40289;DHT22;28991;52.028;5.526;2023-03-05T08:56:35;16.50;44.10
40289;DHT22;28991;52.028;5.526;2023-03-05T08:59:02;16.70;44.00
40289;DHT22;28991;52.028;5.526;2023-03-05T09:01:28;16.70;44.10
40289;DHT22;28991;52.028;5.526;2023-03-05T09:03:56;16.70;43.90
40289;DHT22;28991;52.028;5.526;2023-03-05T09:06:21;16.70;43.90
40289;DHT22;28991;52.028;5.526;2023-03-05T09:08:47;16.80;43.80
40289;DHT22;28991;52.028;5.526;2023-03-05T09:11:13;16.80;43.40
40289;DHT22;28991;52.028;5.526;2023-03-05T09:13:39;16.80;43.70
40289;DHT22;28991;52.028;5.526;2023-03-05T09:16:06;16.70;44.20
40289;DHT22;28991;52.028;5.526;2023-03-05T09:18:33;16.80;43.60
40289;DHT22;28991;52.028;5.526;2023-03-05T09:21:04;17.00;43.80
40289;DHT22;28991;52.028;5.526;2023-03-05T09:23:29;17.00;43.70
40289;DHT22;28991;52.028;5.526;2023-03-05T09:25:55;16.90;44.50
40289;DHT22;28991;52.028;5.526;2023-03-05T09:28:21;16.90;43.50
40289;DHT22;28991;52.028;5.526;2023-03-05T09:30:46;16.80;44.50
40289;DHT22;28991;52.028;5.526;2023-03-05T09:33:12;17.00;43.50
40289;DHT22;28991;52.028;5.526;2023-03-05T09:35:38;17.60;43.60
40289;DHT22;28991;52.028;5.526;2023-03-05T09:38:03;17.60;43.50
40289;DHT22;28991;52.028;5.526;2023-03-05T09:40:49;18.00;44.60
40289;DHT22;28991;52.028;5.526;2023-03-05T09:43:20;17.10;43.00
40289;DHT22;28991;52.028;5.526;2023-03-05T09:46:17;17.00;43.10
40289;DHT22;28991;52.028;5.526;2023-03-05T09:48:50;17.00;43.10
40289;DHT22;28991;52.028;5.526;2023-03-05T09:51:30;17.10;43.00
40289;DHT22;28991;52.028;5.526;2023-03-05T09:54:35;17.00;42.70
40289;DHT22;28991;52.028;5.526;2023-03-05T09:56:55;17.00;42.90
40289;DHT22;28991;52.028;5.526;2023-03-05T09:59:39;17.00;42.80
40289;DHT22;28991;52.028;5.526;2023-03-05T10:07:32;17.10;42.90
40289;DHT22;28991;52.028;5.526;2023-03-05T10:10:01;17.00;42.80
40289;DHT22;28991;52.028;5.526;2023-03-05T10:12:43;16.90;43.10
40289;DHT22;28991;52.028;5.526;2023-03-05T10:20:40;17.10;42.30
40289;DHT22;28991;52.028;5.526;2023-03-05T10:25:59;17.00;42.40
40289;DHT22;28991;52.028;5.526;2023-03-05T10:28:50;17.20;42.40
40289;DHT22;28991;52.028;5.526;2023-03-05T10:31:36;17.20;42.10
40289;DHT22;28991;52.028;5.526;2023-03-05T10:42:46;17.00;42.30
40289;DHT22;28991;52.028;5.526;2023-03-05T10:45:20;17.30;41.70
40289;DHT22;28991;52.028;5.526;2023-03-05T10:47:58;17.00;42.50
40289;DHT22;28991;52.028;5.526;2023-03-05T10:50:30;17.20;41.50
40289;DHT22;28991;52.028;5.526;2023-03-05T10:53:06;17.20;41.70
40289;DHT22;28991;52.028;5.526;2023-03-05T10:55:38;17.30;41.50
40289;DHT22;28991;52.028;5.526;2023-03-05T10:58:14;17.30;41.80
40289;DHT22;28991;52.028;5.526;2023-03-05T11:00:57;18.20;41.80
40289;DHT22;28991;52.028;5.526;2023-03-05T11:03:23;17.30;41.60
40289;DHT22;28991;52.028;5.526;2023-03-05T11:06:00;17.20;41.40
40289;DHT22;28991;52.028;5.526;2023-03-05T11:08:32;17.30;41.60
40289;DHT22;28991;52.028;5.526;2023-03-05T11:11:15;17.20;40.70
40289;DHT22;28991;52.028;5.526;2023-03-05T11:14:00;17.40;41.30
40289;DHT22;28991;52.028;5.526;2023-03-05T11:16:33;17.40;40.90
40289;DHT22;28991;52.028;5.526;2023-03-05T11:19:16;17.20;40.80
40289;DHT22;28991;52.028;5.526;2023-03-05T11:21:43;17.60;40.90
40289;DHT22;28991;52.028;5.526;2023-03-05T11:26:54;17.70;40.20
40289;DHT22;28991;52.028;5.526;2023-03-05T11:29:31;18.20;40.40
40289;DHT22;28991;52.028;5.526;2023-03-05T11:32:21;18.10;39.80
40289;DHT22;28991;52.028;5.526;2023-03-05T11:34:47;18.00;39.50
40289;DHT22;28991;52.028;5.526;2023-03-05T11:39:48;18.00;39.40
40289;DHT22;28991;52.028;5.526;2023-03-05T11:42:29;18.00;39.40
40289;DHT22;28991;52.028;5.526;2023-03-05T11:44:55;17.80;39.60
40289;DHT22;28991;52.028;5.526;2023-03-05T11:47:50;17.80;38.50
40289;DHT22;28991;52.028;5.526;2023-03-05T11:50:23;17.90;40.00
40289;DHT22;28991;52.028;5.526;2023-03-05T11:52:59;17.80;39.60
40289;DHT22;28991;52.028;5.526;2023-03-05T11:56:00;17.30;40.40
40289;DHT22;28991;52.028;5.526;2023-03-05T12:01:25;17.80;39.30
40289;DHT22;28991;52.028;5.526;2023-03-05T12:03:52;17.90;40.30
40289;DHT22;28991;52.028;5.526;2023-03-05T12:06:34;18.00;40.90
40289;DHT22;28991;52.028;5.526;2023-03-05T12:09:23;17.80;40.90
40289;DHT22;28991;52.028;5.526;2023-03-05T12:11:55;17.60;40.80
40289;DHT22;28991;52.028;5.526;2023-03-05T12:14:36;17.10;42.60
40289;DHT22;28991;52.028;5.526;2023-03-05T12:17:14;17.60;41.50
40289;DHT22;28991;52.028;5.526;2023-03-05T12:20:06;17.60;41.00
40289;DHT22;28991;52.028;5.526;2023-03-05T12:22:36;17.40;41.00
40289;DHT22;28991;52.028;5.526;2023-03-05T12:25:24;17.30;41.00
40289;DHT22;28991;52.028;5.526;2023-03-05T12:27:51;17.30;40.90
40289;DHT22;28991;52.028;5.526;2023-03-05T12:33:05;16.90;42.50
40289;DHT22;28991;52.028;5.526;2023-03-05T12:35:50;17.50;42.70
40289;DHT22;28991;52.028;5.526;2023-03-05T12:38:27;17.20;40.80
40289;DHT22;28991;52.028;5.526;2023-03-05T12:44:13;17.00;40.70
40289;DHT22;28991;52.028;5.526;2023-03-05T12:46:43;17.00;40.90
40289;DHT22;28991;52.028;5.526;2023-03-05T12:51:46;16.80;41.00
40289;DHT22;28991;52.028;5.526;2023-03-05T12:54:37;17.30;43.20
40289;DHT22;28991;52.028;5.526;2023-03-05T12:57:21;16.90;43.10
40289;DHT22;28991;52.028;5.526;2023-03-05T12:59:58;17.10;41.40
40289;DHT22;28991;52.028;5.526;2023-03-05T13:05:04;16.50;42.80
40289;DHT22;28991;52.028;5.526;2023-03-05T13:07:32;16.90;43.10
40289;DHT22;28991;52.028;5.526;2023-03-05T13:09:58;16.80;43.10
40289;DHT22;28991;52.028;5.526;2023-03-05T13:12:26;16.70;41.30
40289;DHT22;28991;52.028;5.526;2023-03-05T13:15:04;16.60;41.20
40289;DHT22;28991;52.028;5.526;2023-03-05T13:18:00;16.50;41.20
40289;DHT22;28991;52.028;5.526;2023-03-05T13:20:34;16.40;41.20
40289;DHT22;28991;52.028;5.526;2023-03-05T13:25:40;16.50;41.40
40289;DHT22;28991;52.028;5.526;2023-03-05T13:28:14;16.40;41.40
40289;DHT22;28991;52.028;5.526;2023-03-05T13:30:59;16.40;41.40
40289;DHT22;28991;52.028;5.526;2023-03-05T13:33:32;16.40;41.40
40289;DHT22;28991;52.028;5.526;2023-03-05T13:35:58;16.30;41.40
40289;DHT22;28991;52.028;5.526;2023-03-05T13:38:51;17.20;41.90
40289;DHT22;28991;52.028;5.526;2023-03-05T13:41:20;17.00;41.80
40289;DHT22;28991;52.028;5.526;2023-03-05T13:43:47;16.40;41.50
40289;DHT22;28991;52.028;5.526;2023-03-05T13:46:26;16.70;41.70
40289;DHT22;28991;52.028;5.526;2023-03-05T13:48:53;16.20;41.50
40289;DHT22;28991;52.028;5.526;2023-03-05T13:51:18;16.30;41.50
40289;DHT22;28991;52.028;5.526;2023-03-05T13:53:44;16.30;41.60
40289;DHT22;28991;52.028;5.526;2023-03-05T13:56:16;16.30;41.70
40289;DHT22;28991;52.028;5.526;2023-03-05T13:58:53;16.10;41.60
40289;DHT22;28991;52.028;5.526;2023-03-05T14:01:41;16.10;41.70
40289;DHT22;28991;52.028;5.526;2023-03-05T14:07:02;16.20;41.90
40289;DHT22;28991;52.028;5.526;2023-03-05T14:12:03;15.90;41.90
40289;DHT22;28991;52.028;5.526;2023-03-05T14:14:34;15.80;43.50
40289;DHT22;28991;52.028;5.526;2023-03-05T14:17:20;15.90;42.00
40289;DHT22;28991;52.028;5.526;2023-03-05T14:19:46;16.10;43.70
40289;DHT22;28991;52.028;5.526;2023-03-05T14:22:32;15.40;41.90
40289;DHT22;28991;52.028;5.526;2023-03-05T14:24:58;16.20;43.90
40289;DHT22;28991;52.028;5.526;2023-03-05T14:27:24;16.20;42.40
40289;DHT22;28991;52.028;5.526;2023-03-05T14:29:49;15.80;42.20
40289;DHT22;28991;52.028;5.526;2023-03-05T14:34:54;15.90;42.30
40289;DHT22;28991;52.028;5.526;2023-03-05T14:37:21;15.70;42.30
40289;DHT22;28991;52.028;5.526;2023-03-05T14:39:59;15.80;42.40
40289;DHT22;28991;52.028;5.526;2023-03-05T14:45:23;15.60;42.30
40289;DHT22;28991;52.028;5.526;2023-03-05T14:47:50;16.00;42.60
40289;DHT22;28991;52.028;5.526;2023-03-05T14:50:20;15.70;42.40
40289;DHT22;28991;52.028;5.526;2023-03-05T14:52:48;15.90;42.50
40289;DHT22;28991;52.028;5.526;2023-03-05T14:55:17;16.30;44.20
40289;DHT22;28991;52.028;5.526;2023-03-05T14:57:43;15.90;42.60
40289;DHT22;28991;52.028;5.526;2023-03-05T15:00:21;15.70;42.50
40289;DHT22;28991;52.028;5.526;2023-03-05T15:02:47;15.90;44.10
40289;DHT22;28991;52.028;5.526;2023-03-05T15:05:13;15.70;42.60
40289;DHT22;28991;52.028;5.526;2023-03-05T15:07:39;15.70;42.60
40289;DHT22;28991;52.028;5.526;2023-03-05T15:10:05;15.30;42.40
40289;DHT22;28991;52.028;5.526;2023-03-05T15:12:32;15.70;42.60
40289;DHT22;28991;52.028;5.526;2023-03-05T15:14:58;16.50;43.10
40289;DHT22;28991;52.028;5.526;2023-03-05T15:19:59;15.90;42.80
40289;DHT22;28991;52.028;5.526;2023-03-05T15:22:25;15.70;42.70
40289;DHT22;28991;52.028;5.526;2023-03-05T15:24:51;15.70;42.70
40289;DHT22;28991;52.028;5.526;2023-03-05T15:27:17;15.70;42.80
40289;DHT22;28991;52.028;5.526;2023-03-05T15:29:42;16.10;43.00
40289;DHT22;28991;52.028;5.526;2023-03-05T15:32:08;15.70;42.80
40289;DHT22;28991;52.028;5.526;2023-03-05T15:34:34;15.70;42.80
40289;DHT22;28991;52.028;5.526;2023-03-05T15:37:01;15.60;42.80
40289;DHT22;28991;52.028;5.526;2023-03-05T15:39:27;16.20;43.20
40289;DHT22;28991;52.028;5.526;2023-03-05T15:41:53;15.60;42.90
40289;DHT22;28991;52.028;5.526;2023-03-05T15:44:19;15.50;42.90
40289;DHT22;28991;52.028;5.526;2023-03-05T15:46:45;15.30;42.90
40289;DHT22;28991;52.028;5.526;2023-03-05T15:49:11;15.80;43.20
40289;DHT22;28991;52.028;5.526;2023-03-05T15:51:36;15.30;44.10
40289;DHT22;28991;52.028;5.526;2023-03-05T15:54:02;15.50;43.10
40289;DHT22;28991;52.028;5.526;2023-03-05T15:56:28;15.50;43.10
40289;DHT22;28991;52.028;5.526;2023-03-05T15:58:53;15.30;43.00
40289;DHT22;28991;52.028;5.526;2023-03-05T16:01:19;15.30;43.10
40289;DHT22;28991;52.028;5.526;2023-03-05T16:03:45;15.60;44.40
40289;DHT22;28991;52.028;5.526;2023-03-05T16:06:11;15.50;43.20
40289;DHT22;28991;52.028;5.526;2023-03-05T16:08:39;15.60;43.30
40289;DHT22;28991;52.028;5.526;2023-03-05T16:11:06;15.70;44.00
40289;DHT22;28991;52.028;5.526;2023-03-05T16:13:32;15.40;43.30
40289;DHT22;28991;52.028;5.526;2023-03-05T16:15:59;15.70;43.40
40289;DHT22;28991;52.028;5.526;2023-03-05T16:18:25;15.40;43.30
40289;DHT22;28991;52.028;5.526;2023-03-05T16:20:51;15.40;43.30
40289;DHT22;28991;52.028;5.526;2023-03-05T16:23:17;15.50;43.40
40289;DHT22;28991;52.028;5.526;2023-03-05T16:25:43;15.00;43.20
40289;DHT22;28991;52.028;5.526;2023-03-05T16:28:09;15.30;43.40
40289;DHT22;28991;52.028;5.526;2023-03-05T16:30:35;15.40;43.40
40289;DHT22;28991;52.028;5.526;2023-03-05T16:33:02;15.50;43.50
40289;DHT22;28991;52.028;5.526;2023-03-05T16:35:27;15.00;43.30
40289;DHT22;28991;52.028;5.526;2023-03-05T16:37:53;15.30;43.50
40289;DHT22;28991;52.028;5.526;2023-03-05T16:40:18;15.40;43.60